OEJN/JED METAR and TAF weather

Enter ICAO airport designator
Station Type Date Time Source
OEJN METAR 2021/09/25 12:00 UTC NOAA

OEJN 251200Z 27013KT CAVOK 34/24 Q1005 NOSIG


Station Type Date Time Source
OEJN Decoded METAR 2021/09/25 12:00 UTC NOAA

Jeddah King Abdul Aziz International Airport , Saudi Arabia (OEJN) 21-42N 039-11E 17M
Sep 25, 2021 - 08:00 AM EDT / 2021.09.25 1200 UTC
Wind: from the W (270 degrees) at 15 MPH (13 KT):0
Visibility: greater than 7 mile(s):0
Temperature: 93 F (34 C)
Heat index: 104.5 F (40.3 C):1
Dew Point: 75 F (24 C)
Relative Humidity: 56%
Pressure (altimeter): 29.68 in. Hg (1005 hPa)
ob: OEJN 251200Z 27013KT CAVOK 34/24 Q1005 NOSIG
cycle: 12

Station Type Date Time Source
OEJN TAF 2021/09/25 12:33 UTC NOAA

TAF OEJN 251100Z 2512/2618 32015KT 7000 SCT040
BECMG 2520/2522 36005KT
BECMG 2606/2608 33015KT

Example: see airport list